Relevés horaires Matro (Suisse)


Relevés horaires à Matro - Dimanche 09 Nov. 2014
Heure UTC1 Température [°C] Vent [km/h] Hum. [%] Pres.4 [hPa] Visi. [Km] Nébu. [octa] Préc.5 [mm] Cond.
2m. Res. Ros. Dir.2 Vit. Moy. Raf.3
23:00 -0.2 -8.3 -0.2 SSE 48.2 50.0 59.3 100 850(0.1/3h) -- -- -- --
22:00 -0.2 -8.3 -0.2 SSE 48.2 48.2 57.4 100 850(0.2/3h) -- -- -- --
21:00 -0.1 -8 -0.1 SSE 46.3 55.6 66.7 100 850(0.4/3h) -- -- -- --
20:00 0.0 -7.3 -- SSE 38.9 50.0 59.3 -- 850(0.4/3h) -- -- -- --
19:00 0.5 -7.7 -0.7 SSE 53.7 55.6 66.7 92 850(0.6/3h) -- -- -- --
18:00 0.5 -7.9 0.1 SSE 57.4 57.4 64.8 97 850(0.2/3h) -- -- -- --
17:00 0.8 -7.1 -0.3 SSE 50.0 50.0 57.4 92 850(-0.1/3h) -- -- -- --
16:00 0.9 -5.6 -1.0 S 33.3 33.3 44.4 87 850(-0.4/3h) -- -- -- --
15:00 0.5 -5.8 -0.1 SSE 29.6 33.3 46.3 96 850(-0.3/3h) -- -- -- --
14:00 0.9 -5.1 -0.7 SE 27.8 27.8 33.3 89 850(-0.4/3h) -- -- -- --
13:00 1.0 -4.3 -1.3 SE 22.2 25.9 35.2 85 850(-0.5/3h) -- -- -- --
12:00 1.4 -3.8 0.1 S 22.2 44.4 55.6 91 850(-0.2/3h) -- -- -- --
11:00 1.0 -5.1 -0.9 S 29.6 29.6 37.0 87 850(0.2/3h) -- -- -- --
10:00 1.3 -3.7 0.2 SSE 20.4 33.3 40.7 92 850(0.8/3h) -- -- -- --
09:00 1.2 -5.2 0.6 SSE 33.3 44.4 55.6 96 850(1.2/3h) -- -- -- --
08:00 1.1 -6.1 0.8 SSE 42.6 44.4 55.6 98 850(1.0/3h) -- -- -- --
07:00 1.0 -5.7 0.9 SSE 35.2 40.7 48.2 99 850(0.6/3h) -- -- -- --
06:00 0.9 -6.5 0.4 SSE 44.4 46.3 53.7 96 850(0.0/3h) -- -- -- --
05:00 0.8 -5.7 0.4 S 33.3 37.0 44.4 97 850(-0.3/3h) -- -- -- --
04:00 1.0 -5.1 0.7 S 29.6 31.5 38.9 98 850(-0.6/3h) -- -- -- --
03:00 1.1 -5.4 0.8 SSE 33.3 33.3 40.7 98 850(-0.7/3h) -- -- -- --
02:00 1.4 -3.5 0.5 SE 20.4 29.6 40.7 94 850(-0.7/3h) -- -- -- --
01:00 1.5 -4.5 0.2 S 29.6 29.6 37.0 91 850(-0.5/3h) -- -- -- --
00:00 1.2 -4.7 -0.7 SSE 27.8 40.7 59.3 87 850(-0.6/3h) -- -- -- --

1 Coordinated Universal Time. Actuellement il est 22:00 locale et 20:00 UTC.

2 Le vent souffle depuis la direction indiquée vers la direction oposée.

3 Les rafales max. sont disponible 40 min après l'heure du relevé.

4 Pour les stations d'altitude (plus de 600m) le géopotentiel du niveau le plus proche de la pression obligatoire est indiqué.

5 Les stations disposant d'un diffuseur peuvent indiquer "trace". Cela signifie que des précipitations ont touchés le sol mais que la quantité est inférieure à 0.1 mm.

Copyright

Les données affichées sur cette page sont la propriété exclusive de Météo Suisse.

Récapitulatif de la journée
Température [°C] Vent [km/h] Ensoleillement4 [h] Precipitations totale5 [mm] Pression [Hpa]
Min1 Max.2 Moy.3 Max. Min Max.
0.6 1.6 40.5 66.7 0 h 54 min 0 850.0 850.0

1 Température minimale relevée entre 18:00 UTC la veille et 18:00 UTC le jour donné.

2 Température maximale relevée entre 06:00 UTC le jour donné et 06:00 UTC le lendemain.

3 Vent moyen de la journée basé sur les relevés horaires.

4 Ensoleillement en heures relevé entre 06:00 UTC la veille et 06:00 UTC le jour donné.

5 Précipitations totales tombées entre 06:00 UTC la jour donné et 06:00 UTC le lendemain.

Graphiques horaires